Time;durP1;ratioP1;P1;durP2;ratioP2;P2;SDS_P1;SDS_P2;PMS_P1;PMS_P2;Temp;Humidity;BMP_temperature;BMP_pressure;BME280_temperature;BME280_humidity;BME280_pressure;Samples;Min_cycle;Max_cycle;Signal;HPM_P1;HPM_P2
2021/03/04 00:00:13;;;;;;;20.63;9.05;;;3.80;99.90;;;;;;4928774;29;20473;-77
2021/03/04 00:02:45;;;;;;;26.40;9.27;;;3.80;99.90;;;;;;4925896;29;20175;-75
2021/03/04 00:05:12;;;;;;;28.70;9.77;;;3.80;99.90;;;;;;4929499;29;20560;-76
2021/03/04 00:07:39;;;;;;;18.65;8.48;;;3.80;99.90;;;;;;4928558;29;20035;-75
2021/03/04 00:10:33;;;;;;;21.30;9.02;;;3.80;99.90;;;;;;4927278;29;20032;-75
2021/03/04 00:12:58;;;;;;;25.25;9.60;;;3.80;99.90;;;;;;4924512;29;20075;-75
2021/03/04 00:15:27;;;;;;;16.95;8.85;;;3.80;99.90;;;;;;4925330;29;20016;-75
2021/03/04 00:17:53;;;;;;;31.23;9.90;;;3.90;99.90;;;;;;4910981;29;20043;-76
2021/03/04 00:20:25;;;;;;;25.48;9.93;;;3.90;99.90;;;;;;4914308;29;20032;-77
2021/03/04 00:22:51;;;;;;;21.77;9.25;;;3.90;99.90;;;;;;4929464;29;20042;-77
2021/03/04 00:25:20;;;;;;;27.23;10.10;;;3.90;99.90;;;;;;4928134;29;20024;-76
2021/03/04 00:27:46;;;;;;;33.08;9.43;;;3.90;99.90;;;;;;4929667;29;20036;-76
2021/03/04 00:30:16;;;;;;;32.53;9.35;;;3.90;99.90;;;;;;4927796;29;20036;-76
2021/03/04 00:32:41;;;;;;;19.35;8.00;;;4.00;99.90;;;;;;4928256;29;20118;-77
2021/03/04 00:35:08;;;;;;;29.17;11.40;;;4.00;99.90;;;;;;4926273;29;20039;-76
2021/03/04 00:37:34;;;;;;;22.67;8.25;;;4.00;99.90;;;;;;4928044;29;20120;-76
2021/03/04 00:40:00;;;;;;;27.88;10.43;;;4.00;99.90;;;;;;4924545;29;20060;-75
2021/03/04 00:42:26;;;;;;;22.35;8.85;;;4.00;99.90;;;;;;4910637;29;20505;-75
2021/03/04 00:44:52;;;;;;;31.90;8.75;;;4.00;99.90;;;;;;4910480;29;20028;-75
2021/03/04 00:47:17;;;;;;;29.42;7.85;;;4.10;99.90;;;;;;4910277;29;20033;-75
2021/03/04 00:49:43;;;;;;;19.90;7.38;;;4.10;99.90;;;;;;4910581;29;20033;-75
2021/03/04 00:52:09;;;;;;;16.67;7.15;;;4.00;99.90;;;;;;4910463;29;20065;-76
2021/03/04 00:54:34;;;;;;;22.42;7.55;;;4.00;99.90;;;;;;4910165;29;20043;-76
2021/03/04 00:57:00;;;;;;;16.05;6.55;;;3.90;99.90;;;;;;4929005;29;20028;-75
2021/03/04 00:59:26;;;;;;;15.95;6.10;;;4.00;99.90;;;;;;4927776;29;20044;-75
2021/03/04 01:01:51;;;;;;;17.98;6.68;;;3.80;99.90;;;;;;4928907;29;20485;-76
2021/03/04 01:04:17;;;;;;;12.95;4.28;;;3.70;99.90;;;;;;4928011;29;20032;-77
2021/03/04 01:06:43;;;;;;;31.38;6.80;;;3.60;99.90;;;;;;4928267;29;20036;-76
2021/03/04 01:09:10;;;;;;;19.13;6.43;;;3.60;99.90;;;;;;4927945;29;20039;-76
2021/03/04 01:11:35;;;;;;;15.10;5.85;;;3.60;99.90;;;;;;4927547;29;20032;-75
2021/03/04 01:14:01;;;;;;;16.70;6.72;;;3.60;99.90;;;;;;4929062;29;20034;-75
2021/03/04 01:16:27;;;;;;;16.67;7.25;;;3.60;99.90;;;;;;4928610;29;20032;-76
2021/03/04 01:18:53;;;;;;;31.13;7.20;;;3.60;99.90;;;;;;4929296;29;20040;-76
2021/03/04 01:21:19;;;;;;;24.27;7.43;;;3.60;99.90;;;;;;4927559;29;20038;-78
2021/03/04 01:23:44;;;;;;;25.98;9.13;;;3.70;99.90;;;;;;4927513;29;20038;-76
2021/03/04 01:26:12;;;;;;;34.03;8.63;;;3.70;99.90;;;;;;4915988;29;20056;-77
2021/03/04 01:28:37;;;;;;;25.77;7.63;;;3.70;99.90;;;;;;4923610;29;20036;-76
2021/03/04 01:31:03;;;;;;;14.77;7.30;;;3.70;99.90;;;;;;4909661;29;20040;-76
2021/03/04 01:33:29;;;;;;;30.48;10.20;;;3.60;99.90;;;;;;4923985;29;20097;-76
2021/03/04 01:35:54;;;;;;;17.88;7.15;;;3.70;99.90;;;;;;4924178;29;20037;-76
2021/03/04 01:38:20;;;;;;;28.92;7.72;;;3.60;99.90;;;;;;4908305;29;20123;-76
2021/03/04 01:40:46;;;;;;;15.52;6.70;;;3.70;99.90;;;;;;4909326;29;20028;-76
2021/03/04 01:43:12;;;;;;;22.75;7.25;;;3.50;99.90;;;;;;4909593;29;20032;-77
2021/03/04 01:45:38;;;;;;;31.02;8.50;;;3.50;99.90;;;;;;4909753;29;20087;-76
2021/03/04 01:48:04;;;;;;;21.17;7.47;;;3.50;99.90;;;;;;4908086;29;20032;-76
2021/03/04 01:50:30;;;;;;;26.13;9.13;;;3.50;99.90;;;;;;4909279;29;20024;-76
2021/03/04 01:52:56;;;;;;;21.63;7.43;;;3.50;99.90;;;;;;4909320;29;20053;-76
2021/03/04 01:55:22;;;;;;;26.45;8.23;;;3.50;99.90;;;;;;4922828;29;20037;-76
2021/03/04 01:57:48;;;;;;;22.15;8.60;;;3.50;99.90;;;;;;4923423;29;20043;-76
2021/03/04 02:00:16;;;;;;;19.40;8.48;;;3.60;99.90;;;;;;4909398;29;20037;-76
2021/03/04 02:02:42;;;;;;;23.88;8.60;;;3.60;99.90;;;;;;4908874;29;20044;-76
2021/03/04 02:05:11;;;;;;;27.67;9.30;;;3.60;99.90;;;;;;4909505;29;20043;-76
2021/03/04 02:08:15;;;;;;;22.77;9.43;;;3.60;99.90;;;;;;4923335;29;20029;-76
2021/03/04 02:11:06;;;;;;;29.80;10.77;;;3.70;99.90;;;;;;4909018;29;20152;-77
2021/03/04 02:13:50;;;;;;;25.10;8.77;;;3.70;99.90;;;;;;4909256;29;20044;-76
2021/03/04 02:16:25;;;;;;;32.42;9.73;;;3.60;99.90;;;;;;4909162;29;20035;-76
2021/03/04 02:18:52;;;;;;;;;;;3.60;99.90;;;;;;4909517;29;20044;-76
2021/03/04 02:21:30;;;;;;;19.42;6.05;;;3.50;99.90;;;;;;4909161;29;19971;-77
2021/03/04 02:24:15;;;;;;;23.10;9.48;;;3.50;99.90;;;;;;4908987;29;20029;-76
2021/03/04 02:27:07;;;;;;;20.90;8.90;;;3.50;99.90;;;;;;4924898;29;20516;-76
2021/03/04 02:29:43;;;;;;;23.50;8.45;;;3.60;99.90;;;;;;4920828;29;20052;-76
2021/03/04 02:32:10;;;;;;;27.85;9.63;;;3.60;99.90;;;;;;4909265;29;20028;-76
2021/03/04 02:34:42;;;;;;;33.40;10.15;;;3.60;99.90;;;;;;4907678;29;20438;-77
2021/03/04 02:37:10;;;;;;;24.90;8.73;;;3.70;99.90;;;;;;4909185;29;20028;-76
2021/03/04 02:39:37;;;;;;;29.63;10.20;;;3.70;99.90;;;;;;4908817;29;20398;-75
2021/03/04 02:42:04;;;;;;;23.95;8.45;;;3.70;99.90;;;;;;4908920;29;20032;-76
2021/03/04 02:44:30;;;;;;;25.90;9.63;;;3.70;99.90;;;;;;4908981;29;20029;-76
2021/03/04 02:46:56;;;;;;;23.25;8.20;;;3.80;99.90;;;;;;4906922;29;20115;-76
2021/03/04 02:49:22;;;;;;;24.40;10.10;;;3.70;99.90;;;;;;4908340;29;20044;-77
2021/03/04 02:51:49;;;;;;;23.75;9.32;;;3.70;99.90;;;;;;4906970;29;20035;-77
2021/03/04 02:54:16;;;;;;;25.98;10.25;;;3.70;99.90;;;;;;4910367;29;20043;-77
2021/03/04 02:56:43;;;;;;;31.48;10.85;;;3.70;99.90;;;;;;4911100;29;20033;-77
2021/03/04 02:59:10;;;;;;;31.08;11.30;;;3.70;99.90;;;;;;4913105;29;20552;-76
2021/03/04 03:01:44;;;;;;;23.67;9.48;;;3.70;99.90;;;;;;4928391;29;20031;-78
2021/03/04 03:04:12;;;;;;;26.58;8.45;;;3.60;99.90;;;;;;4929712;29;20091;-76
2021/03/04 03:06:38;;;;;;;21.90;8.25;;;3.60;99.90;;;;;;4931149;29;20028;-76
2021/03/04 03:09:06;;;;;;;28.08;9.35;;;3.60;99.90;;;;;;4929477;29;20500;-75
2021/03/04 03:11:38;;;;;;;21.08;9.30;;;3.60;99.90;;;;;;4927510;29;20037;-76
2021/03/04 03:14:11;;;;;;;29.08;9.13;;;3.60;99.90;;;;;;4928257;29;20028;-76
2021/03/04 03:16:38;;;;;;;25.53;9.87;;;3.60;99.90;;;;;;4930507;29;20142;-76
2021/03/04 03:19:13;;;;;;;24.92;9.50;;;3.60;99.90;;;;;;4929369;29;20115;-75
2021/03/04 03:21:39;;;;;;;24.15;8.82;;;3.60;99.90;;;;;;4929789;29;20043;-76
2021/03/04 03:24:06;;;;;;;31.50;10.50;;;3.60;99.90;;;;;;4930493;29;20509;-76
2021/03/04 03:26:31;;;;;;;21.27;9.10;;;3.60;99.90;;;;;;4930023;29;20401;-75
2021/03/04 03:28:58;;;;;;;28.70;8.27;;;3.60;99.90;;;;;;4929774;29;20029;-76
2021/03/04 03:31:27;;;;;;;20.17;8.60;;;3.60;99.90;;;;;;4929085;29;20037;-75
2021/03/04 03:33:54;;;;;;;25.33;9.23;;;3.60;99.90;;;;;;4929702;29;20031;-76
2021/03/04 03:36:21;;;;;;;24.33;8.30;;;3.60;99.90;;;;;;4929903;29;20056;-76
2021/03/04 03:38:49;;;;;;;22.02;8.18;;;3.60;99.90;;;;;;4930264;29;20063;-77
2021/03/04 03:41:18;;;;;;;17.52;7.75;;;3.60;99.90;;;;;;4930670;29;20036;-77
2021/03/04 03:43:47;;;;;;;34.58;9.18;;;3.60;99.90;;;;;;4930566;29;20044;-77
2021/03/04 03:46:13;;;;;;;21.27;7.13;;;3.70;99.90;;;;;;4930556;29;20020;-77
2021/03/04 03:48:40;;;;;;;12.50;5.95;;;3.80;99.90;;;;;;4930772;29;20035;-75
2021/03/04 03:51:08;;;;;;;18.08;6.38;;;3.70;99.90;;;;;;4929379;29;20035;-75
2021/03/04 03:53:34;;;;;;;23.55;8.40;;;3.80;99.90;;;;;;4928575;29;20032;-76
2021/03/04 03:56:01;;;;;;;17.05;6.88;;;3.70;99.90;;;;;;4928083;29;20039;-76
2021/03/04 03:58:28;;;;;;;17.02;5.80;;;3.70;99.90;;;;;;4929837;29;20040;-76
2021/03/04 04:00:55;;;;;;;13.30;5.88;;;3.70;99.90;;;;;;4930264;29;20052;-76
2021/03/04 04:03:22;;;;;;;14.25;5.38;;;3.70;99.90;;;;;;4929809;29;20080;-77
2021/03/04 04:05:48;;;;;;;17.83;7.00;;;3.60;99.90;;;;;;4927136;29;20034;-76
2021/03/04 04:08:14;;;;;;;13.90;5.68;;;3.60;99.90;;;;;;4929965;29;20097;-76
2021/03/04 04:10:40;;;;;;;15.20;5.72;;;3.60;99.90;;;;;;4929337;29;20121;-76
2021/03/04 04:13:06;;;;;;;17.25;6.70;;;3.60;99.90;;;;;;4928525;29;20028;-77
2021/03/04 04:15:32;;;;;;;10.60;5.28;;;3.60;99.90;;;;;;4930007;29;20083;-76
2021/03/04 04:18:02;;;;;;;15.05;5.25;;;3.50;99.90;;;;;;4929910;29;20040;-76
2021/03/04 04:20:28;;;;;;;15.32;5.68;;;3.50;99.90;;;;;;4929707;29;20024;-76
2021/03/04 04:22:56;;;;;;;13.20;6.05;;;3.50;99.90;;;;;;4928224;29;20123;-76
2021/03/04 04:25:26;;;;;;;14.35;4.60;;;3.50;99.90;;;;;;4930141;29;20028;-76
2021/03/04 04:27:52;;;;;;;10.98;4.72;;;3.40;99.90;;;;;;4928428;29;20134;-76
2021/03/04 04:30:20;;;;;;;9.38;4.80;;;3.40;99.90;;;;;;4929504;29;20032;-77
2021/03/04 04:32:45;;;;;;;8.10;4.05;;;3.40;99.90;;;;;;4929464;29;20032;-77
2021/03/04 04:35:16;;;;;;;11.10;4.90;;;3.40;99.90;;;;;;4928073;29;20031;-76
2021/03/04 04:37:41;;;;;;;10.02;4.20;;;3.40;99.90;;;;;;4927977;29;20158;-77
2021/03/04 04:40:08;;;;;;;10.55;4.53;;;3.40;99.90;;;;;;4927532;29;20062;-76
2021/03/04 04:42:35;;;;;;;10.10;3.70;;;3.30;99.90;;;;;;4928815;29;20693;-75
2021/03/04 04:45:01;;;;;;;7.78;3.05;;;3.30;99.90;;;;;;4929386;29;20023;-77
2021/03/04 04:47:27;;;;;;;7.50;3.45;;;3.30;99.90;;;;;;4929393;29;20024;-76
2021/03/04 04:49:52;;;;;;;7.28;3.25;;;3.30;99.90;;;;;;4928249;29;20052;-76
2021/03/04 04:52:18;;;;;;;9.10;3.25;;;3.30;99.90;;;;;;4926761;29;20115;-77
2021/03/04 04:54:45;;;;;;;7.00;3.38;;;3.30;99.90;;;;;;4927684;29;20052;-77
2021/03/04 04:57:11;;;;;;;6.40;2.85;;;3.30;99.90;;;;;;4929068;29;20474;-77
2021/03/04 04:59:37;;;;;;;6.03;3.15;;;3.30;99.90;;;;;;4928344;29;20036;-77
2021/03/04 05:02:02;;;;;;;11.13;4.28;;;3.40;99.90;;;;;;4926825;29;20038;-76
2021/03/04 05:04:28;;;;;;;10.75;3.75;;;3.40;99.90;;;;;;4927512;29;20035;-76
2021/03/04 05:06:54;;;;;;;6.93;3.17;;;3.40;99.90;;;;;;4927399;29;20039;-76
2021/03/04 05:09:19;;;;;;;7.15;3.17;;;3.30;99.90;;;;;;4928755;29;20052;-77
2021/03/04 05:11:45;;;;;;;8.32;3.85;;;3.30;99.90;;;;;;4927548;29;20520;-77
2021/03/04 05:14:11;;;;;;;7.05;3.03;;;3.40;99.90;;;;;;4929218;29;20032;-76
2021/03/04 05:16:37;;;;;;;8.30;3.28;;;3.40;99.90;;;;;;4926821;29;20039;-76
2021/03/04 05:19:02;;;;;;;5.75;3.08;;;3.30;99.90;;;;;;4927422;29;20048;-76
2021/03/04 05:21:28;;;;;;;7.57;3.50;;;3.30;99.90;;;;;;4928457;29;20474;-76
2021/03/04 05:23:54;;;;;;;5.85;3.05;;;3.30;99.90;;;;;;4927095;29;20052;-76
2021/03/04 05:26:19;;;;;;;10.85;3.33;;;3.40;99.90;;;;;;4927115;29;20035;-76
2021/03/04 05:28:45;;;;;;;8.82;3.78;;;3.40;99.90;;;;;;4928583;29;20035;-76
2021/03/04 05:31:11;;;;;;;3.88;2.22;;;3.40;99.90;;;;;;4928976;29;20032;-76
2021/03/04 05:33:36;;;;;;;10.30;3.63;;;3.30;99.90;;;;;;4927389;29;20087;-75
2021/03/04 05:36:02;;;;;;;10.52;3.15;;;3.30;99.90;;;;;;4927602;29;20020;-76
2021/03/04 05:38:28;;;;;;;8.50;3.70;;;3.30;99.90;;;;;;4928294;29;20040;-76
2021/03/04 05:40:54;;;;;;;4.57;2.60;;;3.30;99.90;;;;;;4928404;29;20035;-76
2021/03/04 05:43:21;;;;;;;6.57;3.67;;;3.30;99.90;;;;;;4926047;29;20374;-77
2021/03/04 05:45:49;;;;;;;5.93;2.17;;;3.30;99.90;;;;;;4927304;29;20058;-75
2021/03/04 05:48:19;;;;;;;4.72;2.78;;;3.30;99.90;;;;;;4925935;29;20021;-77
2021/03/04 05:50:52;;;;;;;8.38;3.90;;;3.30;99.90;;;;;;4927620;29;20036;-76
2021/03/04 05:53:21;;;;;;;7.32;3.03;;;3.30;99.90;;;;;;4927943;29;20032;-77
2021/03/04 05:55:47;;;;;;;9.85;3.67;;;3.30;99.90;;;;;;4928196;29;20040;-77
2021/03/04 05:58:14;;;;;;;5.85;3.10;;;3.30;99.90;;;;;;4926678;29;20079;-77
2021/03/04 06:00:43;;;;;;;8.95;2.78;;;3.40;99.90;;;;;;4926899;29;20496;-77
2021/03/04 06:03:13;;;;;;;7.93;3.03;;;3.40;99.90;;;;;;4927958;29;20074;-78
2021/03/04 06:05:39;;;;;;;7.75;2.88;;;3.40;99.90;;;;;;4926900;29;20043;-77
2021/03/04 06:08:06;;;;;;;6.72;3.10;;;3.50;99.90;;;;;;4928175;29;20028;-78
2021/03/04 06:10:33;;;;;;;9.00;4.00;;;3.50;99.90;;;;;;4927797;29;20032;-77
2021/03/04 06:13:00;;;;;;;12.85;4.07;;;3.60;99.90;;;;;;4925991;29;20028;-76
2021/03/04 06:15:27;;;;;;;6.05;2.78;;;3.50;99.90;;;;;;4928169;29;20112;-77
2021/03/04 06:17:57;;;;;;;8.55;3.15;;;3.60;99.90;;;;;;4926877;29;20111;-77
2021/03/04 06:20:24;;;;;;;6.80;3.13;;;3.60;99.90;;;;;;4927707;29;20028;-77
2021/03/04 06:22:51;;;;;;;9.07;3.65;;;3.70;99.90;;;;;;4925554;29;20032;-77
2021/03/04 06:25:17;;;;;;;5.63;2.95;;;3.60;99.90;;;;;;4927975;29;20020;-78
2021/03/04 06:27:46;;;;;;;3.75;2.13;;;3.70;99.90;;;;;;4909358;29;20100;-78
2021/03/04 06:30:13;;;;;;;7.38;3.08;;;3.70;99.90;;;;;;4912076;29;20039;-77
2021/03/04 06:32:42;;;;;;;12.20;2.97;;;3.80;99.90;;;;;;4913126;29;20028;-77
2021/03/04 06:35:11;;;;;;;9.93;3.33;;;3.70;99.90;;;;;;4911427;29;20037;-77
2021/03/04 06:37:39;;;;;;;5.80;2.80;;;3.70;99.90;;;;;;4927009;29;20028;-78
2021/03/04 06:40:32;;;;;;;6.72;3.47;;;3.70;99.90;;;;;;4927328;29;20028;-76
2021/03/04 06:42:58;;;;;;;5.55;2.50;;;3.60;99.90;;;;;;4920029;29;20056;-78
2021/03/04 06:45:28;;;;;;;10.20;3.45;;;3.70;99.90;;;;;;4924370;29;20447;-75
2021/03/04 06:48:07;;;;;;;4.72;2.80;;;3.60;99.90;;;;;;4927976;29;20473;-76
2021/03/04 06:50:33;;;;;;;9.30;3.35;;;3.60;99.90;;;;;;4912229;29;20425;-76
2021/03/04 06:53:14;;;;;;;9.52;3.05;;;3.60;99.90;;;;;;4915804;29;20028;-76
2021/03/04 06:56:04;;;;;;;12.20;4.43;;;3.60;99.90;;;;;;4931336;29;20025;-76
2021/03/04 06:58:59;;;;;;;7.03;2.67;;;3.70;99.90;;;;;;4926763;29;20044;-76
2021/03/04 07:01:25;;;;;;;7.93;3.40;;;3.70;99.90;;;;;;4912529;29;20088;-76
2021/03/04 07:03:53;;;;;;;6.40;2.90;;;3.70;99.90;;;;;;4926584;29;20063;-76
2021/03/04 07:06:23;;;;;;;6.50;2.88;;;3.70;99.90;;;;;;4926795;29;20052;-77
2021/03/04 07:08:51;;;;;;;7.95;2.92;;;3.70;99.90;;;;;;4929654;29;20056;-80
2021/03/04 07:11:22;;;;;;;6.03;3.33;;;3.60;99.90;;;;;;4929616;29;20069;-76
2021/03/04 07:13:48;;;;;;;6.20;2.92;;;3.60;99.90;;;;;;4929807;29;20384;-76
2021/03/04 07:16:29;;;;;;;9.82;3.58;;;3.60;99.90;;;;;;4929827;29;20024;-76
2021/03/04 07:18:59;;;;;;;7.65;3.67;;;3.70;99.90;;;;;;4928158;29;20044;-76
2021/03/04 07:21:28;;;;;;;10.50;3.72;;;3.70;99.90;;;;;;4927828;29;20128;-75
2021/03/04 07:23:53;;;;;;;5.85;2.97;;;3.70;99.90;;;;;;4911912;29;20027;-77
2021/03/04 07:26:21;;;;;;;4.15;2.63;;;3.80;99.90;;;;;;4926602;29;20033;-77
2021/03/04 07:28:50;;;;;;;7.22;3.42;;;3.70;99.90;;;;;;4918876;29;20401;-77
2021/03/04 07:31:16;;;;;;;7.00;2.95;;;3.70;99.90;;;;;;4927243;29;20061;-76
2021/03/04 07:33:45;;;;;;;5.60;2.72;;;3.70;99.90;;;;;;4921483;29;20036;-77
2021/03/04 07:36:14;;;;;;;5.80;3.03;;;3.80;99.90;;;;;;4922958;29;20076;-76
2021/03/04 07:38:40;;;;;;;8.13;3.13;;;3.80;99.90;;;;;;4929628;29;20047;-76
2021/03/04 07:41:09;;;;;;;5.95;3.47;;;3.90;99.90;;;;;;4925973;29;20063;-77
2021/03/04 07:43:49;;;;;;;7.10;2.70;;;3.90;99.90;;;;;;4926548;29;20029;-77
2021/03/04 07:46:34;;;;;;;8.38;3.22;;;3.90;99.90;;;;;;4929435;29;20104;-78
2021/03/04 07:49:00;;;;;;;;;;;3.90;99.90;;;;;;4924132;29;20084;-76
2021/03/04 07:51:27;;;;;;;7.43;3.58;;;4.00;99.90;;;;;;4911443;29;19932;-78
2021/03/04 07:53:55;;;;;;;3.95;2.10;;;4.00;99.90;;;;;;4911550;29;20030;-76
2021/03/04 07:56:27;;;;;;;4.03;2.28;;;4.00;99.90;;;;;;4911271;29;20060;-76
2021/03/04 07:59:11;;;;;;;10.95;3.63;;;4.00;99.90;;;;;;4911386;29;20072;-76
2021/03/04 08:01:38;;;;;;;6.82;2.47;;;4.00;99.90;;;;;;4928618;29;20028;-76
2021/03/04 08:04:05;;;;;;;5.38;2.90;;;4.10;99.90;;;;;;4928495;29;20103;-78
2021/03/04 08:06:30;;;;;;;9.48;2.90;;;4.10;99.90;;;;;;4930131;29;20047;-76
2021/03/04 08:08:56;;;;;;;15.23;4.72;;;4.10;99.90;;;;;;4927640;29;20028;-75
2021/03/04 08:11:29;;;;;;;6.88;3.17;;;4.10;99.90;;;;;;4915583;29;20044;-77
2021/03/04 08:13:55;;;;;;;3.67;2.47;;;4.20;99.90;;;;;;4922052;29;20048;-77
2021/03/04 08:16:27;;;;;;;7.22;2.67;;;4.20;99.90;;;;;;4927958;29;20050;-77
2021/03/04 08:18:58;;;;;;;6.78;3.45;;;4.20;99.90;;;;;;4922795;29;20044;-75
2021/03/04 08:21:24;;;;;;;9.55;2.83;;;4.20;99.90;;;;;;4929239;29;20027;-76
2021/03/04 08:23:51;;;;;;;8.70;3.17;;;4.30;99.90;;;;;;4924297;29;20020;-76
2021/03/04 08:26:24;;;;;;;5.78;2.90;;;4.30;99.90;;;;;;4924408;29;20036;-76
2021/03/04 08:29:11;;;;;;;9.23;3.83;;;4.30;99.90;;;;;;4927262;29;20035;-80
2021/03/04 08:31:52;;;;;;;6.20;2.92;;;4.40;99.90;;;;;;4929712;29;20039;-77
2021/03/04 08:34:18;;;;;;;6.10;2.75;;;4.50;99.90;;;;;;4946804;29;20038;-77
2021/03/04 08:36:51;;;;;;;9.95;3.05;;;4.50;99.90;;;;;;4948200;29;20087;-78
2021/03/04 08:39:19;;;;;;;7.45;3.25;;;4.50;99.90;;;;;;4947181;29;20495;-77
2021/03/04 08:41:45;;;;;;;11.52;3.53;;;4.60;99.90;;;;;;4944623;28;20028;-76
2021/03/04 08:44:17;;;;;;;7.47;2.63;;;4.70;99.90;;;;;;4947721;29;20539;-78
2021/03/04 08:46:47;;;;;;;5.82;2.72;;;4.70;99.90;;;;;;4948293;29;20090;-76
2021/03/04 08:49:24;;;;;;;5.53;2.45;;;4.70;99.90;;;;;;4946556;28;20039;-77
2021/03/04 08:51:51;;;;;;;10.20;2.88;;;4.70;99.90;;;;;;4947295;29;20039;-77
2021/03/04 08:54:26;;;;;;;6.43;3.05;;;4.70;99.90;;;;;;4922274;28;20056;-78
2021/03/04 08:56:58;;;;;;;9.70;4.03;;;4.70;99.90;;;;;;4919334;29;20040;-77
2021/03/04 08:59:26;;;;;;;8.73;3.08;;;4.70;99.90;;;;;;4919491;29;20047;-76
2021/03/04 09:01:52;;;;;;;5.15;2.72;;;4.70;99.90;;;;;;4924831;29;20029;-76
2021/03/04 09:04:23;;;;;;;7.85;3.33;;;4.70;99.90;;;;;;4909689;29;20075;-75
2021/03/04 09:06:49;;;;;;;7.55;2.92;;;4.70;99.90;;;;;;4924473;29;20089;-78
2021/03/04 09:09:28;;;;;;;7.60;2.45;;;4.70;99.90;;;;;;4925043;29;20042;-77
2021/03/04 09:11:55;;;;;;;3.00;1.55;;;4.80;99.90;;;;;;4917315;29;20043;-76
2021/03/04 09:14:29;;;;;;;5.80;2.35;;;4.80;99.90;;;;;;4914452;29;20120;-75
2021/03/04 09:16:56;;;;;;;10.30;2.50;;;4.70;99.90;;;;;;4928868;29;20468;-76
2021/03/04 09:19:33;;;;;;;7.45;2.60;;;4.80;99.90;;;;;;4927440;29;20060;-76
2021/03/04 09:22:10;;;;;;;5.03;2.67;;;4.80;99.90;;;;;;4927209;29;20028;-75
2021/03/04 09:24:38;;;;;;;7.80;2.20;;;4.80;99.90;;;;;;4926150;29;20473;-76
2021/03/04 09:27:06;;;;;;;9.70;3.80;;;4.80;99.90;;;;;;4924134;29;20068;-74
2021/03/04 09:29:33;;;;;;;3.92;1.83;;;4.80;99.90;;;;;;4926883;29;20092;-76
2021/03/04 09:31:59;;;;;;;5.05;1.73;;;4.90;99.90;;;;;;4928243;29;20138;-74
2021/03/04 09:34:35;;;;;;;6.65;2.25;;;5.00;99.90;;;;;;4928346;29;20024;-77
2021/03/04 09:37:33;;;;;;;3.00;2.10;;;5.00;99.90;;;;;;4928587;29;20035;-75
2021/03/04 09:39:59;;;;;;;2.95;1.65;;;5.00;99.90;;;;;;4928203;29;20068;-75
2021/03/04 09:42:38;;;;;;;4.82;2.42;;;5.00;99.90;;;;;;4927095;29;20361;-77
2021/03/04 09:45:07;;;;;;;6.13;2.22;;;5.10;99.90;;;;;;4928659;29;20054;-77
2021/03/04 09:47:34;;;;;;;3.60;2.00;;;5.10;99.90;;;;;;4910916;29;20035;-75
2021/03/04 09:50:01;;;;;;;4.80;2.22;;;5.00;99.90;;;;;;4926793;29;20099;-76
2021/03/04 09:52:32;;;;;;;13.18;4.47;;;5.00;99.90;;;;;;4923645;29;20093;-77
2021/03/04 09:55:17;;;;;;;9.40;3.60;;;5.00;99.90;;;;;;4919211;29;20098;-76
2021/03/04 09:57:44;;;;;;;5.65;2.35;;;5.10;99.90;;;;;;4920789;29;20043;-76
2021/03/04 10:00:17;;;;;;;15.00;2.72;;;5.10;99.90;;;;;;4923598;29;20045;-74
2021/03/04 10:02:45;;;;;;;5.78;2.53;;;5.20;99.90;;;;;;4909425;29;20049;-77
2021/03/04 10:05:14;;;;;;;6.00;2.53;;;5.20;99.90;;;;;;4924188;29;20028;-78
2021/03/04 10:07:40;;;;;;;3.65;2.13;;;5.30;99.90;;;;;;4909459;29;20039;-76
2021/03/04 10:10:14;;;;;;;4.70;2.00;;;5.40;99.90;;;;;;4906924;29;20123;-75
2021/03/04 10:12:59;;;;;;;5.20;2.83;;;5.50;99.90;;;;;;4912736;29;20039;-78
2021/03/04 10:15:32;;;;;;;5.25;2.35;;;5.50;99.90;;;;;;4916858;29;20043;-76
2021/03/04 10:18:00;;;;;;;4.20;2.22;;;5.50;99.90;;;;;;4919821;29;20031;-76
2021/03/04 10:20:26;;;;;;;4.03;2.22;;;5.60;99.90;;;;;;4909167;29;20040;-76
2021/03/04 10:22:52;;;;;;;3.47;1.80;;;5.60;99.90;;;;;;4909148;29;20060;-76
2021/03/04 10:25:18;;;;;;;4.15;1.98;;;5.60;99.90;;;;;;4944836;29;20090;-77
2021/03/04 10:27:45;;;;;;;5.22;2.60;;;5.60;99.90;;;;;;4946481;29;20038;-77
2021/03/04 10:30:12;;;;;;;3.47;1.88;;;5.60;99.90;;;;;;4947177;29;20051;-76
2021/03/04 10:32:38;;;;;;;5.13;1.70;;;5.50;99.90;;;;;;4940570;29;20060;-78
2021/03/04 10:35:13;;;;;;;5.10;2.55;;;5.50;99.90;;;;;;4913764;29;20028;-76
2021/03/04 10:37:40;;;;;;;6.38;2.30;;;5.60;99.90;;;;;;4926416;29;20036;-78
2021/03/04 10:40:07;;;;;;;8.65;2.78;;;5.60;99.90;;;;;;4927651;29;20032;-76
2021/03/04 10:42:34;;;;;;;4.88;2.08;;;5.60;99.90;;;;;;4926356;29;20123;-76
2021/03/04 10:45:00;;;;;;;4.25;2.00;;;5.50;99.90;;;;;;4921069;29;20061;-77
2021/03/04 10:47:29;;;;;;;13.75;2.92;;;5.60;99.90;;;;;;4922058;29;20033;-76
2021/03/04 10:49:58;;;;;;;4.82;2.30;;;5.70;99.90;;;;;;4913000;29;20225;-76
2021/03/04 10:52:24;;;;;;;3.10;1.80;;;5.70;99.90;;;;;;4921881;29;20033;-77
2021/03/04 10:54:52;;;;;;;2.78;2.20;;;5.80;99.90;;;;;;4924672;29;20035;-78
2021/03/04 10:57:18;;;;;;;3.45;1.60;;;5.90;99.90;;;;;;4924155;29;20052;-76
2021/03/04 10:59:45;;;;;;;5.38;2.05;;;6.00;99.90;;;;;;4924410;29;20061;-77
2021/03/04 11:02:10;;;;;;;2.42;1.52;;;6.10;99.90;;;;;;4926770;29;20064;-76
2021/03/04 11:04:36;;;;;;;7.55;2.50;;;6.20;99.90;;;;;;4926826;29;20028;-76
2021/03/04 11:07:02;;;;;;;2.35;1.83;;;6.30;99.90;;;;;;4927123;29;20087;-76
2021/03/04 11:09:27;;;;;;;4.95;2.20;;;6.20;99.90;;;;;;4925875;29;20028;-76
2021/03/04 11:11:53;;;;;;;5.13;1.92;;;6.20;99.90;;;;;;4925864;29;20024;-75
2021/03/04 11:14:19;;;;;;;3.10;1.55;;;6.20;99.90;;;;;;4921625;29;20354;-76
2021/03/04 11:16:46;;;;;;;5.10;2.00;;;6.00;99.90;;;;;;4915350;29;20053;-79
2021/03/04 11:19:13;;;;;;;6.40;2.10;;;6.20;99.90;;;;;;4925571;29;20065;-78
2021/03/04 11:21:40;;;;;;;7.03;1.92;;;6.10;99.90;;;;;;4943120;29;20127;-76
2021/03/04 11:24:07;;;;;;;5.57;1.65;;;6.20;99.90;;;;;;4947827;28;20413;-76
2021/03/04 11:26:37;;;;;;;2.55;1.50;;;6.20;99.90;;;;;;4947947;28;20059;-76
2021/03/04 11:29:09;;;;;;;4.68;1.40;;;6.10;99.90;;;;;;4947353;28;20087;-76
2021/03/04 11:31:36;;;;;;;3.35;1.88;;;6.20;99.90;;;;;;4947596;28;20830;-75
2021/03/04 11:34:03;;;;;;;2.65;1.55;;;6.20;99.90;;;;;;4948219;28;20046;-76
2021/03/04 11:36:30;;;;;;;5.43;1.65;;;6.20;99.90;;;;;;4947951;28;20034;-77
2021/03/04 11:38:57;;;;;;;2.25;1.27;;;6.10;99.90;;;;;;4917166;29;20048;-77
2021/03/04 11:41:23;;;;;;;6.72;2.05;;;6.10;99.90;;;;;;4930401;29;20393;-75
2021/03/04 11:43:49;;;;;;;8.30;2.08;;;6.10;99.90;;;;;;4929129;29;20034;-75
2021/03/04 11:46:18;;;;;;;2.05;1.33;;;6.20;99.90;;;;;;4930696;29;20040;-76
2021/03/04 11:48:47;;;;;;;6.03;1.73;;;6.10;99.90;;;;;;4930575;29;20056;-76
2021/03/04 11:51:14;;;;;;;2.63;1.60;;;6.10;99.90;;;;;;4925387;29;20036;-76
2021/03/04 11:53:40;;;;;;;3.33;1.73;;;6.20;99.90;;;;;;4911182;29;20032;-76
2021/03/04 11:56:06;;;;;;;3.72;2.00;;;6.20;99.90;;;;;;4909671;29;20028;-75
2021/03/04 11:58:32;;;;;;;1.60;0.68;;;6.20;99.90;;;;;;4910718;29;20048;-75
2021/03/04 12:00:58;;;;;;;2.60;1.10;;;6.30;99.90;;;;;;4911135;29;20055;-75
2021/03/04 12:03:23;;;;;;;6.72;1.08;;;6.20;99.90;;;;;;4910962;29;20497;-75
2021/03/04 12:05:49;;;;;;;2.03;0.93;;;6.30;99.90;;;;;;4909896;29;20024;-74
2021/03/04 12:08:16;;;;;;;2.45;0.70;;;6.30;99.90;;;;;;4910899;29;20040;-76
2021/03/04 12:10:42;;;;;;;9.80;1.85;;;6.40;99.90;;;;;;4911230;29;20029;-76
2021/03/04 12:13:09;;;;;;;3.28;1.63;;;6.40;99.90;;;;;;4909407;29;20377;-75
2021/03/04 12:15:36;;;;;;;10.25;1.77;;;6.40;99.90;;;;;;4909339;29;20056;-76
2021/03/04 12:18:01;;;;;;;11.68;2.10;;;6.40;99.90;;;;;;4909096;29;20123;-77
2021/03/04 12:20:27;;;;;;;4.10;0.82;;;6.40;99.90;;;;;;4912733;29;20045;-77
2021/03/04 12:22:53;;;;;;;0.88;0.88;;;6.50;99.90;;;;;;4910145;29;20035;-75
2021/03/04 12:25:19;;;;;;;11.18;1.58;;;6.60;99.90;;;;;;4909178;29;20044;-77
2021/03/04 12:27:44;;;;;;;3.88;1.08;;;6.60;99.90;;;;;;4908892;29;20032;-77
2021/03/04 12:30:11;;;;;;;31.58;1.58;;;6.70;99.90;;;;;;4910634;29;20039;-76
2021/03/04 12:32:37;;;;;;;2.25;1.00;;;6.60;99.90;;;;;;4909723;29;20035;-76
2021/03/04 12:35:05;;;;;;;2.22;1.30;;;6.70;99.90;;;;;;4909152;29;20032;-75
2021/03/04 12:37:31;;;;;;;8.05;1.40;;;6.70;99.90;;;;;;4913109;29;20057;-75
2021/03/04 12:39:57;;;;;;;4.50;1.20;;;6.70;99.90;;;;;;4920760;29;20037;-77
2021/03/04 12:42:22;;;;;;;4.30;1.38;;;6.70;99.90;;;;;;4925763;29;20033;-77
2021/03/04 12:44:48;;;;;;;6.78;1.55;;;6.80;99.90;;;;;;4910722;29;20106;-77
2021/03/04 12:47:14;;;;;;;2.13;1.30;;;6.80;99.90;;;;;;4910928;29;20031;-77
2021/03/04 12:49:39;;;;;;;4.45;1.10;;;6.90;99.90;;;;;;4925565;29;20119;-75
2021/03/04 12:52:05;;;;;;;1.63;1.17;;;7.00;99.90;;;;;;4912247;29;20035;-76
2021/03/04 12:54:32;;;;;;;13.05;2.33;;;7.00;99.90;;;;;;4926652;29;20033;-78
2021/03/04 12:56:58;;;;;;;2.53;0.80;;;7.10;99.90;;;;;;4925507;29;20478;-78
2021/03/04 12:59:24;;;;;;;16.30;1.27;;;7.10;99.90;;;;;;4910029;29;20059;-75